Time;durP1;ratioP1;P1;durP2;ratioP2;P2;SDS_P1;SDS_P2;PMS_P1;PMS_P2;Temp;Humidity;BMP_temperature;BMP_pressure;BME280_temperature;BME280_humidity;BME280_pressure;Samples;Min_cycle;Max_cycle;Signal;HPM_P1;HPM_P2
2022/02/22 00:00:56;;;;;;;16.50;3.40;;;6.90;99.90;;;;;;5054075;28;20202;-78
2022/02/22 00:03:26;;;;;;;13.90;3.07;;;6.90;99.90;;;;;;5053393;28;20202;-79
2022/02/22 00:05:53;;;;;;;17.30;3.27;;;6.90;99.90;;;;;;5056592;28;20214;-79
2022/02/22 00:08:20;;;;;;;14.90;3.20;;;6.90;99.90;;;;;;5059884;28;20214;-79
2022/02/22 00:10:48;;;;;;;19.23;3.10;;;6.90;99.90;;;;;;5059451;28;20284;-78
2022/02/22 00:13:15;;;;;;;23.00;3.90;;;6.90;99.90;;;;;;5060166;28;20202;-81
2022/02/22 00:15:42;;;;;;;17.20;3.50;;;7.00;99.90;;;;;;5058668;28;20203;-79
2022/02/22 00:18:09;;;;;;;22.77;3.50;;;7.00;99.90;;;;;;5059156;28;20217;-80
2022/02/22 00:20:36;;;;;;;21.63;3.93;;;7.00;99.90;;;;;;5058875;28;20649;-79
2022/02/22 00:23:05;;;;;;;20.23;4.10;;;7.00;99.90;;;;;;5057993;28;20206;-81
2022/02/22 00:25:32;;;;;;;24.83;4.47;;;7.00;99.90;;;;;;5059646;28;20214;-78
2022/02/22 00:28:04;;;;;;;18.53;3.00;;;7.00;99.90;;;;;;5058006;28;20285;-80
2022/02/22 00:30:31;;;;;;;27.90;4.13;;;7.00;99.90;;;;;;5057832;28;20202;-78
2022/02/22 00:32:58;;;;;;;26.17;3.87;;;7.00;99.90;;;;;;5058501;28;20584;-79
2022/02/22 00:35:27;;;;;;;18.03;3.43;;;6.90;99.90;;;;;;5057569;28;20233;-80
2022/02/22 00:37:54;;;;;;;18.40;3.90;;;6.90;99.90;;;;;;5058998;28;20653;-79
2022/02/22 00:40:22;;;;;;;15.43;3.23;;;6.70;99.90;;;;;;5058120;28;20206;-79
2022/02/22 00:42:49;;;;;;;26.05;4.45;;;6.80;99.90;;;;;;5058574;28;20437;-79
2022/02/22 00:45:18;;;;;;;18.77;3.37;;;6.80;99.90;;;;;;5058955;28;20210;-80
2022/02/22 00:47:44;;;;;;;17.70;3.67;;;6.90;99.90;;;;;;5057337;28;20225;-79
2022/02/22 00:50:11;;;;;;;23.57;3.87;;;6.90;99.90;;;;;;5057907;28;20198;-79
2022/02/22 00:52:38;;;;;;;21.70;3.77;;;6.90;99.90;;;;;;5058073;28;20225;-79
2022/02/22 00:55:08;;;;;;;23.20;3.83;;;6.90;99.90;;;;;;5056885;28;20199;-79
2022/02/22 00:57:35;;;;;;;19.00;4.00;;;6.90;99.90;;;;;;5056879;28;20217;-79
2022/02/22 01:00:04;;;;;;;28.20;4.60;;;6.90;99.90;;;;;;5056714;28;20202;-79
2022/02/22 01:02:34;;;;;;;30.40;5.20;;;6.90;99.90;;;;;;5057491;28;20191;-80
2022/02/22 01:05:01;;;;;;;25.33;4.43;;;6.80;99.90;;;;;;5057724;28;20199;-79
2022/02/22 01:07:29;;;;;;;26.57;5.00;;;6.90;99.90;;;;;;5057159;28;20487;-79
2022/02/22 01:09:57;;;;;;;24.80;3.97;;;6.80;99.90;;;;;;5056513;28;20289;-78
2022/02/22 01:12:27;;;;;;;22.70;4.17;;;6.80;99.90;;;;;;5056733;28;20211;-80
2022/02/22 01:14:55;;;;;;;22.13;4.27;;;6.70;99.90;;;;;;5056092;28;20186;-82
2022/02/22 01:17:21;;;;;;;21.07;4.00;;;6.60;99.90;;;;;;5055984;28;20205;-82
2022/02/22 01:19:50;;;;;;;25.67;4.57;;;6.70;99.90;;;;;;5057483;28;20202;-80
2022/02/22 01:22:17;;;;;;;23.27;4.13;;;6.70;99.90;;;;;;5077354;28;20201;-80
2022/02/22 01:24:44;;;;;;;36.03;4.90;;;6.70;99.90;;;;;;5074252;28;20209;-80
2022/02/22 01:27:11;;;;;;;26.00;4.50;;;6.70;99.90;;;;;;5074565;28;20230;-80
2022/02/22 01:29:38;;;;;;;17.23;3.97;;;6.70;99.90;;;;;;5076331;28;20197;-79
2022/02/22 01:32:05;;;;;;;28.85;5.43;;;6.60;99.90;;;;;;5075384;28;20899;-82
2022/02/22 01:34:33;;;;;;;23.33;4.07;;;6.60;99.90;;;;;;5076409;28;20228;-81
2022/02/22 01:37:02;;;;;;;19.77;3.80;;;6.60;99.90;;;;;;5076259;28;20218;-79
2022/02/22 01:39:29;;;;;;;22.53;3.53;;;6.50;99.90;;;;;;5075700;28;20205;-79
2022/02/22 01:41:56;;;;;;;21.47;4.63;;;6.60;99.90;;;;;;5076340;28;20198;-78
2022/02/22 01:44:23;;;;;;;22.20;3.93;;;6.60;99.90;;;;;;5076419;28;20212;-82
2022/02/22 01:46:58;;;;;;;18.63;3.30;;;6.50;99.90;;;;;;5076388;28;20232;-81
2022/02/22 01:49:26;;;;;;;22.93;3.93;;;6.40;99.90;;;;;;5076148;28;20240;-80
2022/02/22 01:51:57;;;;;;;21.07;3.83;;;6.40;99.90;;;;;;5076176;28;20187;-82
2022/02/22 01:54:28;;;;;;;17.63;3.90;;;6.40;99.90;;;;;;5076104;28;20209;-80
2022/02/22 01:56:57;;;;;;;20.07;3.90;;;6.40;99.90;;;;;;5076998;28;20609;-78
2022/02/22 01:59:24;;;;;;;21.53;3.53;;;6.30;99.90;;;;;;5076083;28;20212;-80
2022/02/22 02:01:51;;;;;;;17.53;3.30;;;6.20;99.90;;;;;;5076453;28;20246;-82
2022/02/22 02:04:19;;;;;;;14.83;3.30;;;6.10;99.90;;;;;;5074375;28;20214;-78
2022/02/22 02:06:50;;;;;;;23.60;3.70;;;6.10;99.90;;;;;;5071977;28;20245;-78
2022/02/22 02:09:17;;;;;;;20.60;3.83;;;6.10;99.90;;;;;;5074705;28;20675;-78
2022/02/22 02:11:47;;;;;;;18.27;4.07;;;6.10;99.90;;;;;;5075731;28;20694;-80
2022/02/22 02:14:14;;;;;;;18.83;3.03;;;6.20;99.90;;;;;;5075837;28;20193;-79
2022/02/22 02:16:42;;;;;;;20.27;4.03;;;6.20;99.90;;;;;;5076130;28;20564;-81
2022/02/22 02:19:10;;;;;;;14.93;3.33;;;6.30;99.90;;;;;;5075665;28;20383;-78
2022/02/22 02:21:39;;;;;;;22.23;3.50;;;6.20;99.90;;;;;;5075060;28;20293;-80
2022/02/22 02:24:13;;;;;;;14.20;3.63;;;6.20;99.90;;;;;;5075052;28;20224;-80
2022/02/22 02:26:42;;;;;;;20.20;3.73;;;6.20;99.90;;;;;;5075142;28;20640;-79
2022/02/22 02:29:10;;;;;;;14.37;2.77;;;6.20;99.90;;;;;;5074751;28;20212;-79
2022/02/22 02:31:37;;;;;;;19.13;3.80;;;6.20;99.90;;;;;;5075965;28;20541;-79
2022/02/22 02:34:07;;;;;;;18.37;3.40;;;6.20;99.90;;;;;;5074642;28;20205;-82
2022/02/22 02:36:37;;;;;;;16.23;3.20;;;6.10;99.90;;;;;;5075325;28;20202;-80
2022/02/22 02:39:04;;;;;;;14.90;3.17;;;6.10;99.90;;;;;;5075729;28;20213;-80
2022/02/22 02:41:32;;;;;;;18.77;3.63;;;6.10;99.90;;;;;;5075433;28;20206;-79
2022/02/22 02:44:04;;;;;;;19.40;4.33;;;6.00;99.90;;;;;;5070885;28;20765;-81
2022/02/22 02:46:31;;;;;;;24.53;4.27;;;6.10;99.90;;;;;;5074837;28;20214;-79
2022/02/22 02:48:58;;;;;;;17.27;3.27;;;6.10;99.90;;;;;;5075449;28;20204;-81
2022/02/22 02:51:25;;;;;;;18.90;3.23;;;6.20;99.90;;;;;;5075574;28;20208;-80
2022/02/22 02:53:54;;;;;;;15.17;3.53;;;6.10;99.90;;;;;;5076154;28;20295;-80
2022/02/22 02:56:24;;;;;;;15.67;2.60;;;6.10;99.90;;;;;;5074877;28;20675;-80
2022/02/22 02:58:53;;;;;;;21.70;3.97;;;6.20;99.90;;;;;;5074756;28;20699;-79
2022/02/22 03:01:21;;;;;;;14.97;3.20;;;6.10;99.90;;;;;;5074754;28;20236;-79
2022/02/22 03:03:48;;;;;;;19.33;3.13;;;6.00;99.90;;;;;;5074878;28;20202;-80
2022/02/22 03:06:17;;;;;;;19.90;3.43;;;6.00;99.90;;;;;;5074550;28;20201;-82
2022/02/22 03:08:44;;;;;;;16.90;3.50;;;5.90;99.90;;;;;;5074776;28;20209;-78
2022/02/22 03:11:11;;;;;;;16.70;3.30;;;5.90;99.90;;;;;;5075350;28;20205;-79
2022/02/22 03:13:39;;;;;;;10.23;2.87;;;5.80;99.90;;;;;;5074871;28;20599;-79
2022/02/22 03:16:09;;;;;;;18.33;3.23;;;5.80;99.90;;;;;;5075961;28;20205;-79
2022/02/22 03:18:37;;;;;;;15.27;4.20;;;5.80;99.90;;;;;;5075617;28;20202;-79
2022/02/22 03:21:06;;;;;;;19.67;3.90;;;5.90;99.90;;;;;;5074959;28;20668;-81
2022/02/22 03:23:33;;;;;;;20.47;5.20;;;5.90;99.90;;;;;;5074399;28;20213;-81
2022/02/22 03:26:05;;;;;;;22.47;3.60;;;5.80;99.90;;;;;;5075390;28;20221;-80
2022/02/22 03:28:34;;;;;;;9.97;2.80;;;5.80;99.90;;;;;;5076439;28;20205;-82
2022/02/22 03:31:03;;;;;;;15.15;3.72;;;5.80;99.90;;;;;;5074807;28;20454;-82
2022/02/22 03:33:34;;;;;;;21.70;4.30;;;5.90;99.90;;;;;;5074445;28;20257;-81
2022/02/22 03:36:02;;;;;;;18.87;3.67;;;5.90;99.90;;;;;;5074681;28;20226;-83
2022/02/22 03:38:31;;;;;;;11.23;2.60;;;5.90;99.90;;;;;;5075438;28;20210;-82
2022/02/22 03:40:58;;;;;;;14.60;3.50;;;5.90;99.90;;;;;;5075552;28;20605;-82
2022/02/22 03:43:25;;;;;;;14.53;3.67;;;5.80;99.90;;;;;;5075095;28;20209;-83
2022/02/22 03:45:53;;;;;;;20.70;3.23;;;5.70;99.90;;;;;;5075116;28;20202;-83
2022/02/22 03:48:20;;;;;;;12.73;3.27;;;5.60;99.90;;;;;;5074691;28;20206;-82
2022/02/22 03:50:49;;;;;;;16.03;3.43;;;5.60;99.90;;;;;;5075675;28;20220;-83
2022/02/22 03:53:22;;;;;;;16.87;3.53;;;5.50;99.90;;;;;;5077211;28;20197;-85
2022/02/22 03:55:50;;;;;;;15.90;3.63;;;5.50;99.90;;;;;;5075413;28;20447;-83
2022/02/22 03:58:17;;;;;;;16.70;3.47;;;5.50;99.90;;;;;;5076784;28;20216;-84
2022/02/22 04:00:44;;;;;;;14.80;3.50;;;5.60;99.90;;;;;;5076885;28;20193;-84
2022/02/22 04:03:13;;;;;;;14.13;3.63;;;5.50;99.90;;;;;;5076698;28;20206;-79
2022/02/22 04:05:46;;;;;;;20.33;3.40;;;5.50;99.90;;;;;;5076805;28;20228;-79
2022/02/22 04:08:15;;;;;;;11.17;3.17;;;5.50;99.90;;;;;;5075788;28;20194;-81
2022/02/22 04:10:42;;;;;;;18.00;3.57;;;5.50;99.90;;;;;;5075810;28;20560;-79
2022/02/22 04:13:08;;;;;;;18.10;3.40;;;5.50;99.90;;;;;;5075728;28;20198;-79
2022/02/22 04:15:36;;;;;;;19.83;4.93;;;5.50;99.90;;;;;;5074635;28;20803;-78
2022/02/22 04:18:03;;;;;;;17.70;3.88;;;5.50;99.90;;;;;;5075423;28;20902;-78
2022/02/22 04:20:30;;;;;;;16.83;3.63;;;5.50;99.90;;;;;;5075449;28;20198;-82
2022/02/22 04:22:59;;;;;;;20.47;4.23;;;5.40;99.90;;;;;;5074591;28;20214;-78
2022/02/22 04:25:27;;;;;;;20.33;3.50;;;5.40;99.90;;;;;;5074534;28;20220;-80
2022/02/22 04:27:55;;;;;;;19.90;4.00;;;5.50;99.90;;;;;;5073953;28;20688;-81
2022/02/22 04:30:22;;;;;;;19.53;4.07;;;5.50;99.90;;;;;;5075266;28;20278;-80
2022/02/22 04:32:51;;;;;;;17.03;4.63;;;5.50;99.90;;;;;;5074626;28;20300;-78
2022/02/22 04:35:18;;;;;;;20.60;4.60;;;5.50;99.90;;;;;;5075345;28;20217;-80
2022/02/22 04:37:46;;;;;;;17.77;4.30;;;5.50;99.90;;;;;;5075925;28;20202;-79
2022/02/22 04:40:13;;;;;;;24.10;4.73;;;5.50;99.90;;;;;;5076797;28;20201;-78
2022/02/22 04:42:46;;;;;;;29.40;6.07;;;5.50;99.90;;;;;;5075555;28;20922;-79
2022/02/22 04:45:13;;;;;;;21.50;4.63;;;5.60;99.90;;;;;;5076217;28;20244;-81
2022/02/22 04:47:42;;;;;;;31.80;5.33;;;5.60;99.90;;;;;;5075720;28;20233;-79
2022/02/22 04:50:10;;;;;;;22.20;4.90;;;5.50;99.90;;;;;;5077186;28;20196;-78
2022/02/22 04:52:37;;;;;;;31.97;5.80;;;5.50;99.90;;;;;;5077506;28;20198;-78
2022/02/22 04:55:07;;;;;;;27.63;5.67;;;5.50;99.90;;;;;;5079195;28;20202;-80
2022/02/22 04:57:35;;;;;;;28.23;5.20;;;5.50;99.90;;;;;;5079255;28;20197;-78
2022/02/22 05:00:09;;;;;;;32.80;5.87;;;5.60;99.90;;;;;;5078608;28;20299;-79
2022/02/22 05:02:36;;;;;;;28.43;4.93;;;5.50;99.90;;;;;;5077331;28;20213;-78
2022/02/22 05:05:03;;;;;;;26.00;5.63;;;5.50;99.90;;;;;;5078182;28;20559;-78
2022/02/22 05:07:30;;;;;;;30.70;7.75;;;5.50;99.90;;;;;;5075930;28;20447;-78
2022/02/22 05:09:58;;;;;;;29.47;5.90;;;5.50;99.90;;;;;;5077117;28;20582;-78
2022/02/22 05:12:31;;;;;;;23.73;5.17;;;5.50;99.90;;;;;;5078420;28;20194;-82
2022/02/22 05:14:57;;;;;;;28.93;5.73;;;5.50;99.90;;;;;;5078988;28;20201;-80
2022/02/22 05:17:28;;;;;;;27.60;5.33;;;5.60;99.90;;;;;;5078313;28;20580;-78
2022/02/22 05:19:55;;;;;;;36.03;6.40;;;5.70;99.90;;;;;;5078541;28;20201;-80
2022/02/22 05:22:22;;;;;;;32.40;5.90;;;5.60;99.90;;;;;;5076879;28;20215;-80
2022/02/22 05:24:49;;;;;;;34.67;5.87;;;5.70;99.90;;;;;;5076379;28;20213;-80
2022/02/22 05:27:16;;;;;;;26.63;5.87;;;5.70;99.90;;;;;;5076884;28;20659;-79
2022/02/22 05:29:43;;;;;;;38.17;6.17;;;5.60;99.90;;;;;;5076675;28;20651;-80
2022/02/22 05:32:10;;;;;;;30.13;5.63;;;5.60;99.90;;;;;;5076341;28;20210;-79
2022/02/22 05:34:39;;;;;;;41.67;6.23;;;5.60;99.90;;;;;;5076688;28;20283;-79
2022/02/22 05:37:06;;;;;;;34.90;6.77;;;5.60;99.90;;;;;;5077174;28;20206;-80
2022/02/22 05:39:33;;;;;;;29.90;6.13;;;5.70;99.90;;;;;;5077656;28;20213;-78
2022/02/22 05:42:00;;;;;;;30.43;5.73;;;5.70;99.90;;;;;;5078692;28;20202;-79
2022/02/22 05:44:27;;;;;;;31.37;5.73;;;5.70;99.90;;;;;;5077758;28;20202;-79
2022/02/22 05:46:54;;;;;;;32.97;6.13;;;5.70;99.90;;;;;;5077511;28;20218;-79
2022/02/22 05:49:25;;;;;;;38.43;6.67;;;5.60;99.90;;;;;;5077833;28;20202;-79
2022/02/22 05:51:55;;;;;;;38.53;6.47;;;5.60;99.90;;;;;;5077737;28;20302;-78
2022/02/22 05:54:22;;;;;;;25.73;5.43;;;5.60;99.90;;;;;;5077932;28;20209;-80
2022/02/22 05:56:49;;;;;;;24.60;5.07;;;5.50;99.90;;;;;;5077724;28;20676;-83
2022/02/22 05:59:16;;;;;;;36.23;5.83;;;5.40;99.90;;;;;;5076071;28;20190;-78
2022/02/22 06:01:44;;;;;;;29.53;5.63;;;5.30;99.90;;;;;;5071539;28;20214;-78
2022/02/22 06:04:12;;;;;;;34.00;6.23;;;5.40;99.90;;;;;;5070051;28;20626;-81
2022/02/22 06:06:39;;;;;;;30.00;6.07;;;5.40;99.90;;;;;;5075195;28;20193;-81
2022/02/22 06:09:09;;;;;;;24.77;5.60;;;5.50;99.90;;;;;;5078019;28;20212;-78
2022/02/22 06:11:36;;;;;;;26.50;5.73;;;5.50;99.90;;;;;;5077264;28;20202;-79
2022/02/22 06:14:03;;;;;;;25.17;5.50;;;5.50;99.90;;;;;;5076587;28;20213;-80
2022/02/22 06:16:30;;;;;;;19.67;5.53;;;5.60;99.90;;;;;;5076660;28;20201;-80
2022/02/22 06:18:57;;;;;;;33.33;8.33;;;5.60;99.90;;;;;;5076099;28;20968;-81
2022/02/22 06:21:24;;;;;;;35.30;6.40;;;5.70;99.90;;;;;;5077204;28;20213;-80
2022/02/22 06:23:51;;;;;;;27.20;6.17;;;5.70;99.90;;;;;;5076078;28;20213;-80
2022/02/22 06:26:22;;;;;;;23.60;6.23;;;5.70;99.90;;;;;;5075221;28;20201;-81
2022/02/22 06:28:51;;;;;;;30.47;6.63;;;5.50;99.90;;;;;;5075240;28;20312;-81
2022/02/22 06:31:18;;;;;;;30.50;5.20;;;5.50;99.90;;;;;;5075508;28;20248;-79
2022/02/22 06:33:47;;;;;;;26.27;5.87;;;5.40;99.90;;;;;;5076623;28;20197;-81
2022/02/22 06:36:14;;;;;;;32.43;5.83;;;5.40;99.90;;;;;;5057703;28;20226;-79
2022/02/22 06:38:41;;;;;;;32.23;5.90;;;5.40;99.90;;;;;;5076141;28;20229;-80
2022/02/22 06:41:09;;;;;;;26.33;5.77;;;5.40;99.90;;;;;;5075610;28;20600;-80
2022/02/22 06:43:38;;;;;;;35.00;8.00;;;5.50;99.90;;;;;;5074277;28;20423;-82
2022/02/22 06:46:07;;;;;;;25.67;5.93;;;5.50;99.90;;;;;;5075150;28;20227;-82
2022/02/22 06:48:34;;;;;;;37.50;6.70;;;5.60;99.90;;;;;;5075076;28;20229;-81
2022/02/22 06:51:01;;;;;;;30.43;6.50;;;5.60;99.90;;;;;;5075768;28;20213;-85
2022/02/22 06:53:28;;;;;;;33.00;6.30;;;5.60;99.90;;;;;;5074797;28;20212;-83
2022/02/22 06:55:55;;;;;;;26.93;5.63;;;5.60;99.90;;;;;;5074855;28;20201;-80
2022/02/22 06:58:25;;;;;;;30.80;6.17;;;5.60;99.90;;;;;;5074353;28;20552;-82
2022/02/22 07:00:53;;;;;;;36.13;6.53;;;5.70;99.90;;;;;;5075154;28;20194;-80
2022/02/22 07:03:21;;;;;;;36.73;6.07;;;5.70;99.90;;;;;;5074907;28;20276;-81
2022/02/22 07:05:51;;;;;;;26.13;4.90;;;5.60;99.90;;;;;;5076049;28;20583;-79
2022/02/22 07:08:18;;;;;;;23.20;5.27;;;5.60;99.90;;;;;;5076315;28;20230;-85
2022/02/22 07:10:45;;;;;;;32.60;5.47;;;5.70;99.90;;;;;;5075653;28;20194;-80
2022/02/22 07:13:12;;;;;;;29.57;5.03;;;5.70;99.90;;;;;;5074843;28;20255;-80
2022/02/22 07:15:41;;;;;;;31.57;6.57;;;5.70;99.90;;;;;;5075335;28;20194;-80
2022/02/22 07:18:10;;;;;;;22.70;5.87;;;5.60;99.90;;;;;;5075504;28;20193;-81
2022/02/22 07:20:37;;;;;;;34.60;8.00;;;5.60;99.90;;;;;;5074225;28;20197;-80
2022/02/22 07:23:04;;;;;;;30.87;6.17;;;5.70;99.90;;;;;;5075819;28;20213;-80
2022/02/22 07:25:33;;;;;;;30.63;6.87;;;5.70;99.90;;;;;;5075264;28;20247;-81
2022/02/22 07:28:02;;;;;;;30.47;5.90;;;5.70;99.90;;;;;;5074834;28;20230;-82
2022/02/22 07:30:30;;;;;;;39.28;8.38;;;5.80;99.90;;;;;;5075329;28;20436;-80
2022/02/22 07:33:02;;;;;;;29.27;6.50;;;6.00;99.90;;;;;;5075212;28;20555;-87
2022/02/22 07:35:31;;;;;;;35.33;7.03;;;6.10;99.90;;;;;;5074773;28;20229;-81
2022/02/22 07:37:59;;;;;;;33.73;6.13;;;5.90;99.90;;;;;;5074736;28;20206;-83
2022/02/22 07:40:30;;;;;;;26.77;6.73;;;6.00;99.90;;;;;;5074255;28;20187;-86
2022/02/22 07:42:59;;;;;;;32.87;6.67;;;6.00;99.90;;;;;;5074830;28;20202;-87
2022/02/22 07:45:27;;;;;;;24.57;6.63;;;6.00;99.90;;;;;;5074902;28;20201;-83
2022/02/22 07:47:55;;;;;;;32.00;5.73;;;6.10;99.90;;;;;;5074467;28;20237;-83
2022/02/22 07:50:30;;;;;;;29.90;6.57;;;6.20;99.90;;;;;;5074293;28;20269;-79
2022/02/22 07:53:03;;;;;;;29.05;6.22;;;6.20;99.90;;;;;;5074862;28;20428;-86
2022/02/22 07:55:37;;;;;;;35.27;6.80;;;6.20;99.90;;;;;;5077553;28;20206;-88
2022/02/22 07:58:06;;;;;;;30.63;6.73;;;6.20;99.90;;;;;;5077088;28;20200;-85
2022/02/22 08:00:35;;;;;;;36.00;7.00;;;6.30;99.90;;;;;;5078673;28;20212;-88
2022/02/22 08:03:02;;;;;;;39.83;7.70;;;6.30;99.90;;;;;;5075865;28;20285;-81
2022/02/22 08:05:30;;;;;;;35.83;7.50;;;6.40;99.90;;;;;;5076421;28;20201;-84
2022/02/22 08:08:00;;;;;;;32.83;7.60;;;6.40;99.90;;;;;;5075371;28;20209;-83
2022/02/22 08:10:27;;;;;;;37.60;7.97;;;6.50;99.90;;;;;;5075085;28;20190;-84
2022/02/22 08:12:55;;;;;;;38.20;7.20;;;6.60;99.90;;;;;;5075405;28;20724;-83
2022/02/22 08:15:22;;;;;;;29.03;7.77;;;6.60;99.90;;;;;;5077278;28;20645;-85
2022/02/22 08:17:50;;;;;;;35.63;7.70;;;6.60;99.90;;;;;;5076545;28;20272;-83
2022/02/22 08:20:17;;;;;;;28.43;7.13;;;6.70;99.90;;;;;;5075007;28;20679;-81
2022/02/22 08:22:47;;;;;;;37.57;9.10;;;6.80;99.90;;;;;;5075659;28;20201;-82
2022/02/22 08:25:15;;;;;;;26.27;6.83;;;6.70;99.90;;;;;;5075593;28;20245;-82
2022/02/22 08:27:42;;;;;;;30.17;6.93;;;6.80;99.90;;;;;;5078712;28;20229;-80
2022/02/22 08:30:15;;;;;;;35.00;7.53;;;6.90;99.90;;;;;;5080449;28;20205;-82
2022/02/22 08:32:42;;;;;;;35.53;8.23;;;7.00;99.90;;;;;;5079893;28;20293;-84
2022/02/22 08:35:10;;;;;;;34.03;8.10;;;7.10;99.90;;;;;;5080758;28;20232;-82
2022/02/22 08:37:37;;;;;;;32.40;7.80;;;7.20;99.90;;;;;;5080470;28;20206;-81
2022/02/22 08:40:07;;;;;;;42.10;8.83;;;7.20;99.90;;;;;;5080468;28;20201;-83
2022/02/22 08:42:35;;;;;;;39.83;10.60;;;7.40;99.90;;;;;;5078419;28;20442;-83
2022/02/22 08:45:06;;;;;;;39.50;8.77;;;7.40;99.90;;;;;;5080206;28;20553;-83
2022/02/22 08:47:33;;;;;;;42.07;10.63;;;7.50;99.90;;;;;;5079643;28;20229;-87
2022/02/22 08:50:02;;;;;;;38.80;8.87;;;7.60;99.90;;;;;;5080143;28;20668;-82
2022/02/22 08:52:31;;;;;;;39.30;8.30;;;7.80;99.90;;;;;;5080346;28;20190;-84
2022/02/22 08:54:59;;;;;;;39.27;8.67;;;7.90;99.90;;;;;;5079988;28;20293;-82
2022/02/22 08:57:28;;;;;;;41.23;8.07;;;8.00;99.90;;;;;;5079799;28;20198;-86
2022/02/22 08:59:57;;;;;;;43.93;9.13;;;8.20;99.90;;;;;;5081293;28;20198;-84
2022/02/22 09:02:25;;;;;;;42.23;8.73;;;8.20;99.90;;;;;;5080876;28;20198;-84
2022/02/22 09:04:54;;;;;;;50.07;10.17;;;8.20;99.90;;;;;;5080338;28;20289;-86
2022/02/22 09:07:22;;;;;;;38.00;8.73;;;8.20;99.90;;;;;;5080314;28;20198;-87
2022/02/22 09:09:50;;;;;;;45.30;10.40;;;8.20;99.90;;;;;;5077789;28;20202;-86
2022/02/22 09:12:18;;;;;;;42.50;9.60;;;8.30;99.90;;;;;;5081664;28;20217;-82
2022/02/22 09:14:55;;;;;;;39.10;9.50;;;8.40;99.90;;;;;;5080255;28;20202;-85
2022/02/22 09:17:24;;;;;;;44.57;10.97;;;8.30;99.90;;;;;;5079810;28;20205;-84
2022/02/22 09:19:52;;;;;;;46.57;7.87;;;8.40;99.90;;;;;;5080909;28;20455;-84
2022/02/22 09:22:19;;;;;;;38.90;9.30;;;8.40;99.90;;;;;;5079785;28;20194;-83
2022/02/22 09:24:47;;;;;;;43.17;8.93;;;8.50;99.90;;;;;;5080470;28;20216;-84
2022/02/22 09:27:14;;;;;;;45.27;9.80;;;8.40;99.90;;;;;;5080317;28;20197;-82
2022/02/22 09:29:43;;;;;;;45.57;8.43;;;8.50;99.90;;;;;;5080168;28;20712;-87
2022/02/22 09:32:12;;;;;;;39.63;8.27;;;8.50;99.90;;;;;;5076671;28;20672;-83
2022/02/22 09:34:38;;;;;;;49.97;9.80;;;8.60;99.90;;;;;;5078066;28;20289;-82
2022/02/22 09:37:06;;;;;;;44.23;8.37;;;8.60;99.90;;;;;;5077565;28;20205;-82
2022/02/22 09:39:34;;;;;;;44.73;8.73;;;8.70;99.90;;;;;;5076202;28;20236;-81
2022/02/22 09:42:02;;;;;;;51.07;8.73;;;8.70;99.90;;;;;;5077733;28;20462;-81
2022/02/22 09:44:30;;;;;;;48.43;9.37;;;8.70;99.90;;;;;;5077912;28;20684;-80
2022/02/22 09:46:58;;;;;;;48.30;9.97;;;8.70;99.90;;;;;;5077385;28;20209;-84
2022/02/22 09:49:26;;;;;;;51.67;9.47;;;8.80;99.90;;;;;;5078089;28;20225;-83
2022/02/22 09:51:53;;;;;;;54.23;11.57;;;8.60;99.90;;;;;;5077725;28;20197;-82
2022/02/22 09:54:21;;;;;;;51.13;10.67;;;8.60;99.90;;;;;;5077769;28;20236;-80
2022/02/22 09:56:48;;;;;;;47.30;8.83;;;8.60;99.90;;;;;;5077522;28;20258;-83
2022/02/22 09:59:16;;;;;;;44.23;9.67;;;8.70;99.90;;;;;;5077629;28;20206;-82
2022/02/22 10:01:44;;;;;;;47.00;9.37;;;8.80;99.90;;;;;;5078096;28;20214;-82
2022/02/22 10:04:10;;;;;;;54.13;10.67;;;8.80;99.90;;;;;;5076324;28;20212;-82
2022/02/22 10:06:41;;;;;;;55.10;10.30;;;8.80;99.90;;;;;;5077265;28;20194;-84
2022/02/22 10:09:10;;;;;;;45.23;8.80;;;8.70;99.90;;;;;;5078087;28;20218;-81
2022/02/22 10:11:46;;;;;;;44.30;9.30;;;8.70;99.90;;;;;;5076510;28;20248;-83
2022/02/22 10:14:21;;;;;;;52.33;8.87;;;8.80;99.90;;;;;;5077174;28;20698;-82
2022/02/22 10:16:53;;;;;;;47.93;9.13;;;8.70;99.90;;;;;;5076080;28;20205;-83
2022/02/22 10:19:22;;;;;;;48.87;8.27;;;8.70;99.90;;;;;;5077788;28;20255;-83
2022/02/22 10:21:55;;;;;;;40.43;8.27;;;8.60;99.90;;;;;;5077667;28;20209;-81
2022/02/22 10:24:22;;;;;;;60.37;9.97;;;8.60;99.90;;;;;;5077958;28;20286;-78
2022/02/22 10:26:59;;;;;;;38.73;7.93;;;8.70;99.90;;;;;;5078829;28;20193;-78
2022/02/22 10:29:26;;;;;;;47.87;7.80;;;8.70;99.90;;;;;;5076802;28;20743;-87
2022/02/22 10:31:54;;;;;;;39.03;8.57;;;8.60;99.90;;;;;;5077183;28;20208;-88
2022/02/22 10:34:31;;;;;;;40.00;8.23;;;8.70;99.90;;;;;;5075599;28;20329;-85
2022/02/22 10:37:00;;;;;;;37.77;7.87;;;8.80;99.90;;;;;;5075559;28;20194;-80
2022/02/22 10:39:27;;;;;;;29.27;6.90;;;8.80;99.90;;;;;;5076480;28;20198;-81
2022/02/22 10:41:56;;;;;;;35.97;7.37;;;8.70;99.90;;;;;;5075630;28;20224;-78
2022/02/22 10:44:29;;;;;;;34.17;7.57;;;8.80;99.90;;;;;;5078001;28;20194;-83
2022/02/22 10:46:57;;;;;;;29.70;7.63;;;8.80;99.90;;;;;;5079484;28;20232;-81
2022/02/22 10:49:25;;;;;;;46.67;8.77;;;8.90;99.90;;;;;;5074436;28;20230;-77
2022/02/22 10:51:52;;;;;;;39.73;8.97;;;8.80;99.90;;;;;;5074017;28;20212;-82
2022/02/22 10:54:24;;;;;;;43.63;10.07;;;8.90;99.90;;;;;;5074618;28;20665;-80
2022/02/22 10:56:52;;;;;;;37.40;9.33;;;9.00;99.90;;;;;;5074950;28;20204;-83
2022/02/22 10:59:19;;;;;;;42.97;8.53;;;8.90;99.90;;;;;;5076163;28;20656;-78
2022/02/22 11:01:46;;;;;;;40.40;9.03;;;8.90;99.90;;;;;;5076513;28;20209;-78
2022/02/22 11:04:13;;;;;;;45.55;10.32;;;8.90;99.90;;;;;;5074530;28;20415;-82
2022/02/22 11:06:40;;;;;;;45.10;10.40;;;8.90;99.90;;;;;;5058804;28;20206;-80
2022/02/22 11:09:08;;;;;;;40.13;9.53;;;8.90;99.90;;;;;;5076100;28;20224;-82
2022/02/22 11:11:38;;;;;;;35.57;8.77;;;8.90;99.90;;;;;;5076299;28;20205;-83
2022/02/22 11:14:07;;;;;;;32.70;8.63;;;9.00;99.90;;;;;;5075794;28;20194;-83
2022/02/22 11:16:43;;;;;;;40.60;8.00;;;9.10;99.90;;;;;;5076674;28;20190;-81
2022/02/22 11:19:16;;;;;;;44.93;9.07;;;9.00;99.90;;;;;;5075920;28;20189;-89
2022/02/22 11:21:44;;;;;;;35.33;8.50;;;9.00;99.90;;;;;;5075948;28;20194;-83
2022/02/22 11:24:14;;;;;;;32.20;8.13;;;9.10;99.90;;;;;;5075392;28;20206;-83
2022/02/22 11:26:48;;;;;;;35.97;8.47;;;9.10;99.90;;;;;;5075020;28;20549;-81
2022/02/22 11:29:16;;;;;;;29.03;9.43;;;9.00;99.90;;;;;;5072875;28;20228;-81
2022/02/22 11:31:45;;;;;;;35.73;10.00;;;9.00;99.90;;;;;;5074730;28;20209;-85
2022/02/22 11:34:12;;;;;;;29.03;9.57;;;9.00;99.90;;;;;;5070747;28;20205;-82
2022/02/22 11:36:44;;;;;;;36.93;10.47;;;9.00;99.90;;;;;;5074296;28;20190;-80
2022/02/22 11:39:21;;;;;;;38.07;10.90;;;9.10;99.90;;;;;;5072540;28;20197;-84
2022/02/22 11:41:49;;;;;;;29.37;8.57;;;9.10;99.90;;;;;;5075280;28;20238;-85
2022/02/22 11:44:19;;;;;;;42.37;11.00;;;9.10;99.90;;;;;;5077404;28;20197;-84
2022/02/22 11:46:54;;;;;;;31.13;10.37;;;9.20;99.90;;;;;;5074565;28;20190;-82
2022/02/22 11:49:27;;;;;;;32.30;9.47;;;9.30;99.90;;;;;;5073656;28;20821;-84
2022/02/22 11:52:01;;;;;;;32.97;9.53;;;9.50;99.90;;;;;;5074341;28;20255;-89
2022/02/22 11:54:29;;;;;;;28.73;9.50;;;9.60;99.90;;;;;;5056850;28;20208;-83
2022/02/22 11:57:06;;;;;;;35.47;9.17;;;9.60;99.90;;;;;;5054769;28;20211;-84
2022/02/22 11:59:46;;;;;;;29.03;8.70;;;9.70;99.90;;;;;;5053989;28;20555;-89
2022/02/22 12:02:26;;;;;;;30.03;8.93;;;9.70;99.90;;;;;;5053945;28;20205;-82
2022/02/22 12:04:59;;;;;;;30.00;8.47;;;9.70;99.90;;;;;;5055043;28;20248;-89
2022/02/22 12:07:27;;;;;;;31.30;9.40;;;9.80;99.90;;;;;;5055764;28;20198;-79
2022/02/22 12:09:56;;;;;;;29.80;9.30;;;9.80;99.90;;;;;;5055517;28;20253;-80
2022/02/22 12:12:25;;;;;;;23.30;9.60;;;9.90;99.90;;;;;;5055120;28;20245;-89
2022/02/22 12:14:53;;;;;;;29.87;10.73;;;9.90;99.90;;;;;;5055726;28;20203;-90
2022/02/22 12:17:20;;;;;;;28.15;11.57;;;9.90;99.90;;;;;;5053655;28;20549;-90
2022/02/22 12:19:50;;;;;;;28.80;10.40;;;10.00;99.90;;;;;;5054988;28;20186;-89
2022/02/22 12:22:20;;;;;;;28.00;9.10;;;10.10;99.90;;;;;;5054505;28;20245;-79
2022/02/22 12:24:57;;;;;;;28.33;9.77;;;10.20;99.90;;;;;;5054430;28;20214;-79
2022/02/22 12:27:30;;;;;;;26.27;9.27;;;10.40;99.90;;;;;;5054206;28;20404;-81
2022/02/22 12:29:57;;;;;;;29.23;10.13;;;10.50;99.90;;;;;;5054496;28;20214;-87
2022/02/22 12:32:24;;;;;;;23.30;8.53;;;10.50;99.90;;;;;;5053663;28;20217;-84
2022/02/22 12:34:56;;;;;;;23.53;8.53;;;10.50;99.90;;;;;;5054389;28;20496;-85
2022/02/22 12:37:25;;;;;;;24.97;8.47;;;10.50;99.90;;;;;;5054542;28;20206;-89
2022/02/22 12:39:52;;;;;;;25.13;9.47;;;10.50;99.90;;;;;;5054630;28;20213;-88
2022/02/22 12:42:19;;;;;;;19.80;6.97;;;10.50;99.90;;;;;;5054265;28;20206;-76
2022/02/22 12:44:50;;;;;;;17.77;7.30;;;10.60;99.90;;;;;;5053487;28;20225;-77
2022/02/22 12:47:17;;;;;;;17.60;6.97;;;10.70;99.90;;;;;;5053127;28;20350;-76
2022/02/22 12:49:45;;;;;;;17.37;6.90;;;10.70;99.90;;;;;;5053411;28;20693;-77
2022/02/22 12:52:15;;;;;;;17.10;7.07;;;10.80;99.90;;;;;;5053190;28;20583;-81